createdAt,value
2023-05-22T00:01:45.319Z,100203.78
2023-05-22T00:04:13.477Z,100199.72
2023-05-22T00:06:43.809Z,100199.58
2023-05-22T00:09:10.569Z,100199.38
2023-05-22T00:11:37.195Z,100198.19
2023-05-22T00:14:03.888Z,100199.44
2023-05-22T00:16:30.683Z,100199.75
2023-05-22T00:18:57.738Z,100203.10
2023-05-22T00:21:24.689Z,100201.53
2023-05-22T00:23:51.329Z,100205.64
2023-05-22T00:26:17.978Z,100204.63
2023-05-22T00:28:44.618Z,100203.97
2023-05-22T00:31:11.502Z,100202.27
2023-05-22T00:33:38.380Z,100198.29
2023-05-22T00:36:06.006Z,100194.37
2023-05-22T00:38:34.291Z,100189.52
2023-05-22T00:41:02.805Z,100188.77
2023-05-22T00:43:29.549Z,100188.82
2023-05-22T00:45:56.407Z,100190.40
2023-05-22T00:48:23.642Z,100187.40
2023-05-22T00:50:50.889Z,100187.56
2023-05-22T00:53:19.652Z,100187.16
2023-05-22T00:55:46.308Z,100184.67
2023-05-22T00:58:19.287Z,100186.91
2023-05-22T01:00:49.117Z,100186.33
2023-05-22T01:03:16.313Z,100182.60
2023-05-22T01:05:43.804Z,100187.58
2023-05-22T01:08:10.618Z,100183.27
2023-05-22T01:10:38.181Z,100184.05
2023-05-22T01:13:19.105Z,100179.29
2023-05-22T01:16:04.911Z,100176.14
2023-05-22T01:18:42.610Z,100182.29
2023-05-22T01:21:13.662Z,100183.52
2023-05-22T01:24:18.287Z,100181.00
2023-05-22T01:27:08.303Z,100180.64
2023-05-22T01:30:07.211Z,100179.27
2023-05-22T01:32:34.425Z,100178.58
2023-05-22T01:35:01.931Z,100177.80
2023-05-22T01:37:28.699Z,100173.61
2023-05-22T01:39:55.865Z,100172.21
2023-05-22T01:42:22.748Z,100171.98
2023-05-22T01:44:49.452Z,100170.39
2023-05-22T01:47:16.965Z,100173.34
2023-05-22T01:49:43.576Z,100170.58
2023-05-22T01:52:15.563Z,100174.67
2023-05-22T01:54:52.760Z,100179.01
2023-05-22T01:57:33.122Z,100172.91
2023-05-22T02:00:09.747Z,100174.77
2023-05-22T02:02:49.568Z,100171.77
2023-05-22T02:05:18.446Z,100170.25
2023-05-22T02:07:45.515Z,100172.48
2023-05-22T02:10:12.467Z,100170.68
2023-05-22T02:12:39.153Z,100175.64
2023-05-22T02:15:07.110Z,100170.41
2023-05-22T02:17:40.634Z,100174.44
2023-05-22T02:20:15.123Z,100180.04
2023-05-22T02:22:46.797Z,100178.54
2023-05-22T02:25:14.959Z,100179.29
2023-05-22T02:27:42.913Z,100181.87
2023-05-22T02:30:10.173Z,100180.75
2023-05-22T02:32:37.555Z,100179.11
2023-05-22T02:35:04.993Z,100178.03
2023-05-22T02:37:31.745Z,100173.65
2023-05-22T02:39:59.070Z,100173.20
2023-05-22T02:42:26.076Z,100171.72
2023-05-22T02:44:53.735Z,100170.70
2023-05-22T02:47:20.481Z,100169.39
2023-05-22T02:49:47.390Z,100171.14
2023-05-22T02:52:14.694Z,100171.19
2023-05-22T02:54:41.952Z,100175.92
2023-05-22T02:57:08.651Z,100177.84
2023-05-22T02:59:36.832Z,100174.86
2023-05-22T03:02:03.866Z,100183.25
2023-05-22T03:04:30.731Z,100179.95
2023-05-22T03:06:57.424Z,100180.59
2023-05-22T03:09:25.543Z,100182.81
2023-05-22T03:11:52.188Z,100177.73
2023-05-22T03:14:18.819Z,100178.60
2023-05-22T03:16:45.513Z,100179.25
2023-05-22T03:19:15.910Z,100182.63
2023-05-22T03:21:46.038Z,100185.91
2023-05-22T03:24:13.196Z,100182.88
2023-05-22T03:26:40.008Z,100180.09
2023-05-22T03:29:08.773Z,100185.23
2023-05-22T03:31:36.176Z,100184.42
2023-05-22T03:34:08.729Z,100183.67
2023-05-22T03:36:37.110Z,100179.77
2023-05-22T03:39:04.134Z,100182.73
2023-05-22T03:41:33.001Z,100184.16
2023-05-22T03:43:59.978Z,100182.00
2023-05-22T03:46:27.182Z,100180.47
2023-05-22T03:48:54.118Z,100181.26
2023-05-22T03:51:20.759Z,100178.86
2023-05-22T03:53:47.467Z,100178.21
2023-05-22T03:56:14.588Z,100182.77
2023-05-22T03:58:41.287Z,100181.36
2023-05-22T04:01:10.109Z,100179.03
2023-05-22T04:03:37.911Z,100179.02
2023-05-22T04:06:05.895Z,100176.36
2023-05-22T04:08:32.726Z,100175.05
2023-05-22T04:11:00.446Z,100172.23
2023-05-22T04:13:27.371Z,100168.77
2023-05-22T04:15:54.149Z,100166.66
2023-05-22T04:18:20.991Z,100166.73
2023-05-22T04:20:47.874Z,100159.42
2023-05-22T04:23:14.563Z,100161.98
2023-05-22T04:25:41.291Z,100159.16
2023-05-22T04:28:09.446Z,100161.93
2023-05-22T04:30:40.428Z,100164.85
2023-05-22T04:33:08.554Z,100156.13
2023-05-22T04:35:36.165Z,100151.27
2023-05-22T04:38:06.594Z,100152.79
2023-05-22T04:40:38.092Z,100155.81
2023-05-22T04:43:05.208Z,100155.02
2023-05-22T04:45:33.026Z,100153.42
2023-05-22T04:48:02.588Z,100153.14
2023-05-22T04:50:33.054Z,100155.49
2023-05-22T04:53:00.056Z,100151.24
2023-05-22T04:55:26.850Z,100148.64
2023-05-22T04:57:53.763Z,100149.66
2023-05-22T05:00:26.389Z,100148.95
2023-05-22T05:02:53.595Z,100149.04
2023-05-22T05:05:20.591Z,100149.21
2023-05-22T05:07:50.057Z,100152.30
2023-05-22T05:10:17.735Z,100153.75
2023-05-22T05:12:44.429Z,100156.31
2023-05-22T05:15:11.225Z,100155.69
2023-05-22T05:17:38.430Z,100154.20
2023-05-22T05:20:07.642Z,100152.83
2023-05-22T05:22:34.672Z,100152.82
2023-05-22T05:25:03.768Z,100150.83
2023-05-22T05:27:30.760Z,100150.91
2023-05-22T05:29:57.452Z,100152.95
2023-05-22T05:32:30.427Z,100149.98
2023-05-22T05:35:02.929Z,100149.80
2023-05-22T05:37:50.073Z,100149.08
2023-05-22T05:40:17.282Z,100151.27
2023-05-22T05:42:50.153Z,100144.12
2023-05-22T05:45:19.029Z,100143.29
2023-05-22T05:47:45.956Z,100141.36
2023-05-22T05:50:15.636Z,100140.00
2023-05-22T05:52:42.951Z,100139.45
2023-05-22T05:55:14.372Z,100131.98
2023-05-22T05:57:41.489Z,100133.70
2023-05-22T06:00:12.583Z,100134.56
2023-05-22T06:02:42.303Z,100136.02
2023-05-22T06:05:41.919Z,100135.06
2023-05-22T06:08:32.323Z,100134.25
2023-05-22T06:10:59.280Z,100130.43
2023-05-22T06:13:32.695Z,100129.09
2023-05-22T06:16:02.753Z,100131.05
2023-05-22T06:18:31.339Z,100129.09
2023-05-22T06:20:59.187Z,100126.59
2023-05-22T06:23:25.999Z,100125.78
2023-05-22T06:25:54.043Z,100125.11
2023-05-22T06:28:21.386Z,100122.52
2023-05-22T06:30:48.363Z,100122.16
2023-05-22T06:33:16.802Z,100123.46
2023-05-22T06:35:44.480Z,100121.98
2023-05-22T06:38:12.389Z,100121.73
2023-05-22T06:40:40.243Z,100119.03
2023-05-22T06:43:13.260Z,100118.98
2023-05-22T06:45:51.061Z,100116.42
2023-05-22T06:48:36.210Z,100114.18
2023-05-22T06:51:12.899Z,100118.27
2023-05-22T06:53:40.746Z,100114.08
2023-05-22T06:56:12.289Z,100115.97
2023-05-22T06:58:54.860Z,100116.80
2023-05-22T07:01:23.774Z,100111.11
2023-05-22T07:04:05.192Z,100106.30
2023-05-22T07:06:39.138Z,100104.98
2023-05-22T07:09:06.459Z,100102.89
2023-05-22T07:11:33.582Z,100100.77
2023-05-22T07:14:01.472Z,100104.19
2023-05-22T07:16:29.986Z,100101.73
2023-05-22T07:18:57.303Z,100104.82
2023-05-22T07:21:24.292Z,100104.84
2023-05-22T07:23:52.443Z,100108.08
2023-05-22T07:26:19.236Z,100106.55
2023-05-22T07:28:51.414Z,100107.45
2023-05-22T07:31:18.124Z,100105.92
2023-05-22T07:33:45.448Z,100103.27
2023-05-22T07:36:12.581Z,100102.40
2023-05-22T07:38:41.048Z,100107.64
2023-05-22T07:41:07.894Z,100107.32
2023-05-22T07:43:34.734Z,100110.55
2023-05-22T07:46:01.871Z,100109.63
2023-05-22T07:48:33.878Z,100108.61
2023-05-22T07:51:00.849Z,100106.52
2023-05-22T07:53:27.574Z,100103.96
2023-05-22T07:55:55.954Z,100100.69
2023-05-22T07:58:24.241Z,100095.23
2023-05-22T08:00:51.411Z,100096.75
2023-05-22T08:03:18.818Z,100095.95
2023-05-22T08:05:46.547Z,100091.23
2023-05-22T08:08:13.367Z,100089.71
2023-05-22T08:13:10.562Z,100090.78
2023-05-22T08:15:37.197Z,100083.98
2023-05-22T08:18:04.009Z,100087.08
2023-05-22T08:20:30.921Z,100087.89
2023-05-22T08:22:57.659Z,100087.15
2023-05-22T08:25:24.330Z,100087.40
2023-05-22T08:27:50.982Z,100083.91
2023-05-22T08:30:17.851Z,100081.38
2023-05-22T08:32:44.661Z,100081.54
2023-05-22T08:35:11.442Z,100087.24
2023-05-22T08:37:38.100Z,100089.52
2023-05-22T08:40:06.132Z,100085.99
2023-05-22T08:42:33.099Z,100080.80
2023-05-22T08:45:01.189Z,100084.29
2023-05-22T08:47:28.575Z,100081.64
2023-05-22T08:49:55.641Z,100079.41
2023-05-22T08:52:23.192Z,100077.06
2023-05-22T08:54:53.197Z,100078.09
2023-05-22T08:57:20.552Z,100081.67
2023-05-22T08:59:47.420Z,100081.13
2023-05-22T09:02:14.113Z,100079.39
2023-05-22T09:04:41.222Z,100078.31
2023-05-22T09:07:09.187Z,100080.48
2023-05-22T09:09:39.076Z,100075.64
2023-05-22T09:12:09.222Z,100076.52
2023-05-22T09:14:45.135Z,100067.70
2023-05-22T09:17:18.649Z,100064.85
2023-05-22T09:19:48.296Z,100064.35
2023-05-22T09:22:15.198Z,100070.83
2023-05-22T09:24:42.536Z,100072.17
2023-05-22T09:27:09.863Z,100074.80
2023-05-22T09:29:49.928Z,100073.19
2023-05-22T09:32:17.740Z,100068.73
2023-05-22T09:34:47.940Z,100057.52
2023-05-22T09:37:15.853Z,100053.04
2023-05-22T09:39:47.087Z,100051.95
2023-05-22T09:42:17.970Z,100048.94
2023-05-22T09:44:48.765Z,100042.50
2023-05-22T09:47:15.682Z,100043.64
2023-05-22T09:49:43.366Z,100047.02
2023-05-22T09:52:12.512Z,100047.11
2023-05-22T09:54:45.647Z,100047.04
2023-05-22T09:57:14.080Z,100042.30
2023-05-22T09:59:40.946Z,100040.50
2023-05-22T10:02:07.714Z,100038.52
2023-05-22T10:04:34.575Z,100042.69
2023-05-22T10:07:02.433Z,100031.57
2023-05-22T10:09:31.352Z,100026.90
2023-05-22T10:11:58.690Z,100028.84
2023-05-22T10:14:25.499Z,100029.88
2023-05-22T10:16:52.719Z,100033.29
2023-05-22T10:19:19.614Z,100031.63
2023-05-22T10:21:47.392Z,100029.09
2023-05-22T10:24:14.023Z,100026.90
2023-05-22T10:26:40.739Z,100030.86
2023-05-22T10:29:11.057Z,100024.13
2023-05-22T10:31:55.791Z,100018.05
2023-05-22T10:34:45.364Z,100018.19
2023-05-22T10:37:21.758Z,100013.55
2023-05-22T10:40:02.148Z,100005.95
2023-05-22T10:42:30.919Z,100003.46
2023-05-22T10:45:01.373Z,100005.05
2023-05-22T10:47:28.155Z,100007.08
2023-05-22T10:50:06.715Z,100011.39
2023-05-22T10:52:33.554Z,100004.05
2023-05-22T10:55:00.460Z,100000.66
2023-05-22T10:57:27.470Z,99997.26
2023-05-22T11:00:09.995Z,99996.78
2023-05-22T11:02:39.537Z,99993.41
2023-05-22T11:05:18.612Z,99994.41
2023-05-22T11:07:45.467Z,99993.27
2023-05-22T11:10:12.227Z,99989.55
2023-05-22T11:12:38.881Z,99987.90
2023-05-22T11:15:09.864Z,99984.61
2023-05-22T11:17:40.038Z,99979.47
2023-05-22T11:20:12.537Z,99983.35
2023-05-22T11:22:44.279Z,99986.11
2023-05-22T11:25:17.931Z,99980.37
2023-05-22T11:27:44.730Z,99976.85
2023-05-22T11:30:11.897Z,99976.08
2023-05-22T11:32:39.855Z,99971.83
2023-05-22T11:35:10.061Z,99976.45
2023-05-22T11:37:40.521Z,99978.13
2023-05-22T11:40:08.117Z,99976.11
2023-05-22T11:42:35.566Z,99974.72
2023-05-22T11:45:02.836Z,99969.29
2023-05-22T11:47:30.224Z,99967.27
2023-05-22T11:49:57.722Z,99965.30
2023-05-22T11:52:24.382Z,99965.16
2023-05-22T11:54:54.156Z,99963.33
2023-05-22T11:57:20.894Z,99960.77
2023-05-22T11:59:47.586Z,99959.56
2023-05-22T12:02:14.578Z,99965.59
2023-05-22T12:04:41.414Z,99961.14
2023-05-22T12:07:08.462Z,99960.34
2023-05-22T12:09:35.141Z,99959.81
2023-05-22T12:12:01.807Z,99950.92
2023-05-22T12:14:29.202Z,99948.54
2023-05-22T12:16:55.926Z,99949.83
2023-05-22T12:19:22.712Z,99945.52
2023-05-22T12:21:50.166Z,99942.73
2023-05-22T12:24:21.636Z,99941.05
2023-05-22T12:26:52.644Z,99945.42
2023-05-22T12:29:21.721Z,99943.33
2023-05-22T12:31:48.438Z,99948.34
2023-05-22T12:34:16.240Z,99939.89
2023-05-22T12:36:43.660Z,99940.35
2023-05-22T12:39:11.208Z,99935.36
2023-05-22T12:41:38.548Z,99930.45
2023-05-22T12:44:05.915Z,99927.70
2023-05-22T12:46:33.734Z,99922.85
2023-05-22T12:49:01.167Z,99919.23
2023-05-22T12:51:31.837Z,99916.55
2023-05-22T12:53:59.063Z,99919.13
2023-05-22T12:56:26.499Z,99919.18
2023-05-22T12:58:53.635Z,99915.38
2023-05-22T13:01:21.835Z,99915.00
2023-05-22T13:03:49.158Z,99914.33
2023-05-22T13:06:16.639Z,99915.47
2023-05-22T13:08:43.837Z,99910.54
2023-05-22T13:11:11.331Z,99908.85
2023-05-22T13:13:38.562Z,99911.80
2023-05-22T13:16:06.036Z,99911.41
2023-05-22T13:18:33.281Z,99910.95
2023-05-22T13:21:00.725Z,99907.41
2023-05-22T13:23:27.903Z,99906.38
2023-05-22T13:25:55.298Z,99898.43
2023-05-22T13:28:22.517Z,99894.43
2023-05-22T13:30:49.700Z,99892.93
2023-05-22T13:33:16.915Z,99894.21
2023-05-22T13:35:44.753Z,99894.02
2023-05-22T13:38:11.947Z,99897.28
2023-05-22T13:40:39.216Z,99892.02
2023-05-22T13:43:06.370Z,99891.44
2023-05-22T13:45:33.874Z,99887.95
2023-05-22T13:48:01.572Z,99881.58
2023-05-22T13:50:28.890Z,99883.96
2023-05-22T13:52:56.597Z,99891.04
2023-05-22T13:55:24.000Z,99894.08
2023-05-22T13:57:51.748Z,99887.30
2023-05-22T14:00:19.750Z,99887.15
2023-05-22T14:02:47.456Z,99884.52
2023-05-22T14:05:15.167Z,99888.65
2023-05-22T14:07:42.432Z,99887.42
2023-05-22T14:10:10.313Z,99885.90
2023-05-22T14:12:37.531Z,99880.92
2023-05-22T14:15:05.382Z,99882.01
2023-05-22T14:17:32.544Z,99883.02
2023-05-22T14:19:59.981Z,99880.85
2023-05-22T14:22:27.196Z,99876.88
2023-05-22T14:24:54.359Z,99872.08
2023-05-22T14:27:21.522Z,99871.66
2023-05-22T14:29:48.726Z,99865.80
2023-05-22T14:32:15.997Z,99870.13
2023-05-22T14:34:43.192Z,99874.92
2023-05-22T14:37:10.536Z,99870.46
2023-05-22T14:39:37.671Z,99865.43
2023-05-22T14:42:04.894Z,99864.69
2023-05-22T14:44:32.087Z,99864.64
2023-05-22T14:46:59.654Z,99861.55
2023-05-22T14:49:26.939Z,99860.02
2023-05-22T14:51:54.679Z,99859.28
2023-05-22T14:54:23.702Z,99859.60
2023-05-22T14:56:50.931Z,99860.73
2023-05-22T14:59:18.639Z,99854.10
2023-05-22T15:01:50.125Z,99851.15
2023-05-22T15:04:18.040Z,99847.24
2023-05-22T15:06:45.471Z,99844.05
2023-05-22T15:09:12.602Z,99839.14
2023-05-22T15:11:41.043Z,99842.09
2023-05-22T15:14:08.211Z,99842.70
2023-05-22T15:16:35.656Z,99842.84
2023-05-22T15:19:03.411Z,99846.55
2023-05-22T15:21:31.452Z,99844.70
2023-05-22T15:23:59.016Z,99842.91
2023-05-22T15:26:26.405Z,99839.52
2023-05-22T15:28:53.537Z,99840.96
2023-05-22T15:31:20.735Z,99840.52
2023-05-22T15:33:47.959Z,99839.73
2023-05-22T15:36:15.186Z,99839.03
2023-05-22T15:38:42.641Z,99840.77
2023-05-22T15:41:09.730Z,99846.28
2023-05-22T15:43:36.950Z,99844.91
2023-05-22T15:46:04.179Z,99846.73
2023-05-22T15:48:32.954Z,99845.23
2023-05-22T15:51:00.460Z,99843.15
2023-05-22T15:53:27.639Z,99844.18
2023-05-22T15:55:54.850Z,99840.69
2023-05-22T15:58:22.289Z,99841.52
2023-05-22T16:00:49.620Z,99844.88
2023-05-22T16:03:16.974Z,99842.58
2023-05-22T16:05:47.105Z,99843.44
2023-05-22T16:08:15.509Z,99844.13
2023-05-22T16:10:44.494Z,99841.81
2023-05-22T16:13:12.174Z,99843.84
2023-05-22T16:15:40.096Z,99841.52
2023-05-22T16:18:08.044Z,99843.69
2023-05-22T16:20:35.889Z,99847.14
2023-05-22T16:23:03.167Z,99849.95
2023-05-22T16:25:30.384Z,99851.86
2023-05-22T16:27:57.726Z,99853.06
2023-05-22T16:30:24.913Z,99858.20
2023-05-22T16:32:52.158Z,99857.23
2023-05-22T16:35:23.693Z,99859.98
2023-05-22T16:37:51.027Z,99860.60
2023-05-22T16:40:18.750Z,99859.69
2023-05-22T16:42:46.032Z,99859.95
2023-05-22T16:45:13.315Z,99859.95
2023-05-22T16:47:40.690Z,99860.85
2023-05-22T16:50:08.705Z,99861.55
2023-05-22T16:52:36.770Z,99863.48
2023-05-22T16:55:04.757Z,99865.84
2023-05-22T16:57:31.977Z,99863.54
2023-05-22T16:59:59.182Z,99865.37
2023-05-22T17:02:26.473Z,99866.48
2023-05-22T17:04:54.577Z,99868.39
2023-05-22T17:07:21.993Z,99867.02
2023-05-22T17:09:49.171Z,99868.13
2023-05-22T17:12:16.491Z,99867.19
2023-05-22T17:14:43.876Z,99867.33
2023-05-22T17:17:11.123Z,99867.69
2023-05-22T17:19:38.530Z,99866.36
2023-05-22T17:22:05.979Z,99866.27
2023-05-22T17:24:34.152Z,99864.39
2023-05-22T17:27:03.463Z,99864.17
2023-05-22T17:29:30.708Z,99865.06
2023-05-22T17:31:57.984Z,99865.81
2023-05-22T17:34:25.332Z,99864.60
2023-05-22T17:36:52.589Z,99866.29
2023-05-22T17:39:19.793Z,99867.15
2023-05-22T17:41:46.967Z,99870.15
2023-05-22T17:44:14.184Z,99874.26
2023-05-22T17:46:41.652Z,99872.66
2023-05-22T17:49:09.449Z,99878.48
2023-05-22T17:51:37.375Z,99873.72
2023-05-22T17:54:06.258Z,99875.52
2023-05-22T17:56:33.477Z,99872.98
2023-05-22T17:59:01.361Z,99876.10
2023-05-22T18:01:29.586Z,99875.04
2023-05-22T18:03:56.908Z,99880.89
2023-05-22T18:06:24.528Z,99880.80
2023-05-22T18:08:52.025Z,99881.21
2023-05-22T18:11:19.356Z,99882.83
2023-05-22T18:13:46.781Z,99882.58
2023-05-22T18:16:14.468Z,99886.81
2023-05-22T18:18:41.971Z,99892.30
2023-05-22T18:21:09.144Z,99893.73
2023-05-22T18:23:36.374Z,99894.04
2023-05-22T18:26:03.577Z,99893.11
2023-05-22T18:28:30.818Z,99896.61
2023-05-22T18:30:58.095Z,99891.46
2023-05-22T18:33:25.383Z,99891.61
2023-05-22T18:35:52.768Z,99887.31
2023-05-22T18:38:22.052Z,99890.70
2023-05-22T18:40:49.240Z,99889.37
2023-05-22T18:43:16.458Z,99888.32
2023-05-22T18:45:43.814Z,99889.23
2023-05-22T18:48:11.229Z,99889.73
2023-05-22T18:50:38.943Z,99887.19
2023-05-22T18:53:07.026Z,99883.48
2023-05-22T18:55:34.426Z,99882.74
2023-05-22T18:58:01.655Z,99883.21
2023-05-22T19:00:28.852Z,99881.96
2023-05-22T19:02:56.414Z,99878.14
2023-05-22T19:05:23.664Z,99882.58
2023-05-22T19:07:50.890Z,99883.83
2023-05-22T19:10:18.126Z,99882.60
2023-05-22T19:12:45.351Z,99878.70
2023-05-22T19:15:12.529Z,99879.98
2023-05-22T19:17:39.781Z,99877.77
2023-05-22T19:20:07.758Z,99879.52
2023-05-22T19:22:35.023Z,99880.83
2023-05-22T19:25:02.921Z,99880.61
2023-05-22T19:27:30.391Z,99882.02
2023-05-22T19:29:57.606Z,99881.55
2023-05-22T19:32:25.060Z,99880.06
2023-05-22T19:34:52.277Z,99879.59
2023-05-22T19:37:19.614Z,99878.02
2023-05-22T19:39:48.450Z,99875.38
2023-05-22T19:42:15.811Z,99878.52
2023-05-22T19:44:43.032Z,99873.95
2023-05-22T19:47:10.296Z,99874.13
2023-05-22T19:49:37.985Z,99878.42
2023-05-22T19:52:06.063Z,99881.92
2023-05-22T19:54:35.376Z,99878.09
2023-05-22T19:57:03.101Z,99877.22
2023-05-22T19:59:30.573Z,99878.89
2023-05-22T20:01:57.836Z,99876.65
2023-05-22T20:04:25.103Z,99872.89
2023-05-22T20:06:54.123Z,99873.29
2023-05-22T20:09:21.653Z,99874.82
2023-05-22T20:11:48.781Z,99877.66
2023-05-22T20:14:16.086Z,99877.45
2023-05-22T20:16:43.556Z,99881.59
2023-05-22T20:19:10.971Z,99881.56
2023-05-22T20:21:38.346Z,99882.40
2023-05-22T20:24:12.074Z,99885.58
2023-05-22T20:26:39.355Z,99886.09
2023-05-22T20:29:06.599Z,99884.16
2023-05-22T20:31:34.841Z,99882.02
2023-05-22T20:34:02.406Z,99885.53
2023-05-22T20:36:29.774Z,99880.86
2023-05-22T20:38:58.544Z,99879.83
2023-05-22T20:41:25.922Z,99876.61
2023-05-22T20:43:54.526Z,99876.59
2023-05-22T20:46:25.171Z,99878.34
2023-05-22T20:48:52.523Z,99877.21
2023-05-22T20:51:20.598Z,99874.68
2023-05-22T20:53:48.417Z,99877.27
2023-05-22T20:56:16.300Z,99873.83
2023-05-22T20:58:43.660Z,99875.73
2023-05-22T21:01:11.036Z,99876.48
2023-05-22T21:03:38.324Z,99875.46
2023-05-22T21:06:06.247Z,99871.50
2023-05-22T21:08:34.231Z,99873.30
2023-05-22T21:11:01.510Z,99872.56
2023-05-22T21:13:28.725Z,99868.64
2023-05-22T21:15:55.914Z,99869.44
2023-05-22T21:18:24.298Z,99871.19
2023-05-22T21:20:51.712Z,99870.65
2023-05-22T21:23:18.920Z,99872.69
2023-05-22T21:25:46.101Z,99870.74
2023-05-22T21:28:13.280Z,99869.40
2023-05-22T21:30:40.643Z,99872.59
2023-05-22T21:33:08.231Z,99870.36
2023-05-22T21:35:35.699Z,99874.17
2023-05-22T21:38:02.912Z,99874.10
2023-05-22T21:40:30.089Z,99868.99
2023-05-22T21:42:57.275Z,99869.90
2023-05-22T21:45:24.438Z,99867.48
2023-05-22T21:47:51.675Z,99865.17
2023-05-22T21:50:18.972Z,99865.74
2023-05-22T21:52:46.152Z,99867.52
2023-05-22T21:55:13.404Z,99867.60
2023-05-22T21:57:41.118Z,99868.09
2023-05-22T22:00:09.170Z,99875.95
2023-05-22T22:02:36.431Z,99872.04
2023-05-22T22:05:04.346Z,99871.91
2023-05-22T22:07:31.533Z,99874.61
2023-05-22T22:09:59.091Z,99872.23
2023-05-22T22:12:26.516Z,99874.32
2023-05-22T22:14:53.996Z,99876.36
2023-05-22T22:17:23.701Z,99879.89
2023-05-22T22:19:53.565Z,99879.30
2023-05-22T22:22:22.827Z,99876.25
2023-05-22T22:24:50.201Z,99872.98
2023-05-22T22:27:17.711Z,99875.65
2023-05-22T22:29:44.895Z,99874.59
2023-05-22T22:32:13.058Z,99874.38
2023-05-22T22:34:40.532Z,99874.33
2023-05-22T22:37:07.929Z,99874.23
2023-05-22T22:39:35.116Z,99874.50
2023-05-22T22:42:05.162Z,99872.12
2023-05-22T22:44:32.477Z,99872.41
2023-05-22T22:47:01.852Z,99868.27
2023-05-22T22:49:29.175Z,99866.03
2023-05-22T22:51:56.617Z,99861.06
2023-05-22T22:54:24.010Z,99862.45
2023-05-22T22:56:51.499Z,99861.02
2023-05-22T22:59:19.092Z,99857.94
2023-05-22T23:01:46.417Z,99852.42
2023-05-22T23:04:14.016Z,99850.30
2023-05-22T23:06:44.701Z,99850.46
2023-05-22T23:09:11.894Z,99850.49
2023-05-22T23:11:39.128Z,99849.40
2023-05-22T23:14:07.618Z,99844.77
2023-05-22T23:16:41.066Z,99847.57
2023-05-22T23:19:09.405Z,99848.79
2023-05-22T23:21:36.909Z,99846.64
2023-05-22T23:24:04.547Z,99842.22
2023-05-22T23:26:32.114Z,99843.95
2023-05-22T23:28:59.648Z,99841.00
2023-05-22T23:31:30.744Z,99841.92
2023-05-22T23:33:58.635Z,99843.63
2023-05-22T23:36:25.969Z,99840.03
2023-05-22T23:38:53.136Z,99838.55
2023-05-22T23:41:20.293Z,99833.39
2023-05-22T23:43:47.717Z,99835.99
2023-05-22T23:46:14.993Z,99836.58
2023-05-22T23:48:42.670Z,99835.58
2023-05-22T23:51:10.033Z,99835.65
2023-05-22T23:53:37.549Z,99834.46
2023-05-22T23:56:04.745Z,99832.02
2023-05-22T23:58:32.326Z,99830.08
